Time;durP1;ratioP1;P1;durP2;ratioP2;P2;SDS_P1;SDS_P2;PMS_P1;PMS_P2;Temp;Humidity;BMP_temperature;BMP_pressure;BME280_temperature;BME280_humidity;BME280_pressure;Samples;Min_cycle;Max_cycle;Signal;HPM_P1;HPM_P2
2024/01/27 00:01:34;;;;;;;;;;;;;;;2.42;100.00;103458.34;6245255;22;19899;-77
2024/01/27 00:03:59;;;;;;;;;;;;;;;2.41;100.00;103460.75;6246549;22;19903;-77
2024/01/27 00:06:24;;;;;;;;;;;;;;;2.38;100.00;103463.94;6273781;22;19903;-77
2024/01/27 00:08:50;;;;;;;;;;;;;;;2.35;100.00;103457.59;6247033;22;19981;-77
2024/01/27 00:11:15;;;;;;;;;;;;;;;2.31;100.00;103458.94;6272862;22;19946;-76
2024/01/27 00:13:40;;;;;;;;;;;;;;;2.32;100.00;103449.53;6273665;22;19903;-76
2024/01/27 00:16:05;;;;;;;;;;;;;;;2.32;100.00;103452.09;6246396;22;20326;-76
2024/01/27 00:18:31;;;;;;;;;;;;;;;2.33;100.00;103446.22;6247005;22;20300;-76
2024/01/27 00:20:56;;;;;;;;;;;;;;;2.29;100.00;103445.03;6273000;22;20282;-76
2024/01/27 00:23:21;;;;;;;;;;;;;;;2.27;100.00;103446.50;6273502;22;19917;-76
2024/01/27 00:25:47;;;;;;;;;;;;;;;2.26;100.00;103447.28;6273749;22;19930;-76
2024/01/27 00:28:12;;;;;;;;;;;;;;;2.24;100.00;103444.53;6273671;22;19910;-76
2024/01/27 00:30:37;;;;;;;;;;;;;;;2.24;100.00;103446.22;6273388;22;19907;-76
2024/01/27 00:33:02;;;;;;;;;;;;;;;2.23;100.00;103453.03;6272482;22;19903;-76
2024/01/27 00:35:28;;;;;;;;;;;;;;;2.21;100.00;103456.19;6245875;22;20318;-76
2024/01/27 00:37:53;;;;;;;;;;;;;;;2.19;100.00;103468.91;6273206;22;19903;-76
2024/01/27 00:40:18;;;;;;;;;;;;;;;2.16;100.00;103460.91;6246758;22;19910;-76
2024/01/27 00:42:43;;;;;;;;;;;;;;;2.16;100.00;103467.69;6272946;22;20285;-76
2024/01/27 00:45:09;;;;;;;;;;;;;;;2.13;100.00;103472.53;6274162;22;19903;-76
2024/01/27 00:47:34;;;;;;;;;;;;;;;2.09;100.00;103474.78;6245919;22;20278;-76
2024/01/27 00:50:00;;;;;;;;;;;;;;;2.07;100.00;103475.38;6273933;22;19919;-76
2024/01/27 00:52:25;;;;;;;;;;;;;;;2.07;100.00;103478.88;6272106;22;19903;-76
2024/01/27 00:54:50;;;;;;;;;;;;;;;2.04;100.00;103472.50;6272614;22;19903;-76
2024/01/27 00:57:15;;;;;;;;;;;;;;;2.01;100.00;103475.66;6272648;22;19907;-76
2024/01/27 00:59:41;;;;;;;;;;;;;;;1.99;100.00;103476.28;6273779;22;19993;-76
2024/01/27 01:02:06;;;;;;;;;;;;;;;1.96;100.00;103468.28;6273088;22;20013;-76
2024/01/27 01:04:31;;;;;;;;;;;;;;;1.97;100.00;103476.13;6273399;22;20242;-75
2024/01/27 01:06:57;;;;;;;;;;;;;;;2.00;100.00;103475.50;6273615;22;19903;-76
2024/01/27 01:09:22;;;;;;;;;;;;;;;1.99;100.00;103484.00;6273103;22;19903;-76
2024/01/27 01:11:47;;;;;;;;;;;;;;;2.01;100.00;103488.53;6246686;22;20274;-75
2024/01/27 01:14:13;;;;;;;;;;;;;;;2.02;100.00;103484.31;6273309;22;19903;-75
2024/01/27 01:16:38;;;;;;;;;;;;;;;2.01;100.00;103482.50;6273439;22;20319;-75
2024/01/27 01:19:03;;;;;;;;;;;;;;;1.98;100.00;103484.75;6273553;22;19938;-75
2024/01/27 01:21:28;;;;;;;;;;;;;;;1.95;100.00;103484.44;6271855;22;19903;-75
2024/01/27 01:23:54;;;;;;;;;;;;;;;1.94;100.00;103480.03;6246622;22;19903;-75
2024/01/27 01:26:19;;;;;;;;;;;;;;;1.90;100.00;103472.03;6272972;22;19934;-75
2024/01/27 01:28:44;;;;;;;;;;;;;;;1.88;100.00;103476.13;6273471;22;19910;-75
2024/01/27 01:31:09;;;;;;;;;;;;;;;1.88;100.00;103485.47;6245881;22;19907;-75
2024/01/27 01:33:35;;;;;;;;;;;;;;;1.88;100.00;103478.69;6273493;22;19939;-75
2024/01/27 01:36:00;;;;;;;;;;;;;;;1.89;100.00;103477.91;6273125;22;20238;-75
2024/01/27 01:38:25;;;;;;;;;;;;;;;1.91;100.00;103480.63;6246169;22;20238;-75
2024/01/27 01:40:50;;;;;;;;;;;;;;;1.89;100.00;103472.78;6273397;22;19941;-75
2024/01/27 01:43:16;;;;;;;;;;;;;;;1.87;100.00;103484.56;6272942;22;19965;-75
2024/01/27 01:45:41;;;;;;;;;;;;;;;1.87;100.00;103478.53;6272379;22;19911;-75
2024/01/27 01:48:07;;;;;;;;;;;;;;;1.84;100.00;103475.63;6272521;22;19903;-75
2024/01/27 01:50:32;;;;;;;;;;;;;;;1.81;100.00;103478.81;6273753;22;19914;-75
2024/01/27 01:52:58;;;;;;;;;;;;;;;1.79;100.00;103488.03;6272023;22;20353;-75
2024/01/27 01:55:23;;;;;;;;;;;;;;;1.78;100.00;103488.75;6245731;22;19907;-75
2024/01/27 01:57:49;;;;;;;;;;;;;;;1.79;100.00;103494.84;6272512;22;20011;-75
2024/01/27 02:00:14;;;;;;;;;;;;;;;1.78;100.00;103483.63;6245246;22;19906;-75
2024/01/27 02:02:39;;;;;;;;;;;;;;;1.77;100.00;103486.97;6272385;22;20318;-75
2024/01/27 02:05:05;;;;;;;;;;;;;;;1.77;100.00;103481.81;6273294;22;19907;-75
2024/01/27 02:07:30;;;;;;;;;;;;;;;1.77;100.00;103479.25;6273051;22;19914;-75
2024/01/27 02:09:55;;;;;;;;;;;;;;;1.77;100.00;103483.47;6272543;22;20407;-75
2024/01/27 02:12:21;;;;;;;;;;;;;;;1.78;100.00;103487.88;6272383;22;20278;-75
2024/01/27 02:14:46;;;;;;;;;;;;;;;1.77;100.00;103486.97;6272544;22;19910;-75
2024/01/27 02:17:11;;;;;;;;;;;;;;;1.76;100.00;103487.72;6273129;22;19940;-75
2024/01/27 02:19:36;;;;;;;;;;;;;;;1.74;100.00;103487.56;6246314;22;19918;-75
2024/01/27 02:22:02;;;;;;;;;;;;;;;1.73;100.00;103484.84;6247700;22;19903;-75
2024/01/27 02:24:28;;;;;;;;;;;;;;;1.71;100.00;103496.63;6247400;22;19910;-74
2024/01/27 02:26:53;;;;;;;;;;;;;;;1.69;100.00;103503.25;6274744;22;19941;-75
2024/01/27 02:29:19;;;;;;;;;;;;;;;1.67;100.00;103500.53;6274216;22;19903;-75
2024/01/27 02:31:44;;;;;;;;;;;;;;;1.65;100.00;103498.56;6274388;22;19909;-74
2024/01/27 02:34:09;;;;;;;;;;;;;;;1.62;100.00;103496.56;6274909;22;19925;-74
2024/01/27 02:36:35;;;;;;;;;;;;;;;1.61;100.00;103488.69;6275096;22;19953;-75
2024/01/27 02:39:00;;;;;;;;;;;;;;;1.61;100.00;103488.69;6247935;22;19952;-75
2024/01/27 02:41:25;;;;;;;;;;;;;;;1.60;100.00;103495.50;6274576;22;19978;-74
2024/01/27 02:43:50;;;;;;;;;;;;;;;1.58;100.00;103486.75;6274205;22;19911;-75
2024/01/27 02:46:16;;;;;;;;;;;;;;;1.60;100.00;103490.38;6274244;22;20322;-74
2024/01/27 02:48:42;;;;;;;;;;;;;;;1.60;100.00;103492.03;6247915;22;19907;-74
2024/01/27 02:51:07;;;;;;;;;;;;;;;1.60;100.00;103490.38;6247227;22;19911;-75
2024/01/27 02:53:32;;;;;;;;;;;;;;;1.60;100.00;103492.03;6274018;22;19903;-74
2024/01/27 02:55:57;;;;;;;;;;;;;;;1.60;100.00;103486.91;6246987;22;19903;-74
2024/01/27 02:58:23;;;;;;;;;;;;;;;1.56;100.00;103490.81;6275248;22;20337;-74
2024/01/27 03:00:48;;;;;;;;;;;;;;;1.55;100.00;103488.97;6274647;22;19903;-74
2024/01/27 03:03:14;;;;;;;;;;;;;;;1.54;100.00;103487.19;6274556;22;19903;-74
2024/01/27 03:05:39;;;;;;;;;;;;;;;1.53;100.00;103490.50;6274480;22;19903;-75
2024/01/27 03:08:04;;;;;;;;;;;;;;;1.51;100.00;103498.03;6274243;22;19914;-74
2024/01/27 03:10:31;;;;;;;;;;;;;;;1.53;100.00;103493.97;6247451;22;20309;-74
2024/01/27 03:12:56;;;;;;;;;;;;;;;1.52;100.00;103497.31;6247470;22;20318;-74
2024/01/27 03:15:21;;;;;;;;;;;;;;;1.53;100.00;103501.66;6246601;22;19961;-75
2024/01/27 03:17:46;;;;;;;;;;;;;;;1.54;100.00;103500.94;6274704;22;19903;-74
2024/01/27 03:20:12;;;;;;;;;;;;;;;1.53;100.00;103496.53;6274581;22;20338;-74
2024/01/27 03:22:37;;;;;;;;;;;;;;;1.53;100.00;103495.63;6274764;22;19910;-74
2024/01/27 03:25:03;;;;;;;;;;;;;;;1.53;100.00;103491.38;6273915;22;19903;-74
2024/01/27 03:27:28;;;;;;;;;;;;;;;1.52;100.00;103496.38;6274333;22;19909;-74
2024/01/27 03:29:54;;;;;;;;;;;;;;;1.51;100.00;103498.03;6246841;22;19952;-74
2024/01/27 03:32:19;;;;;;;;;;;;;;;1.48;100.00;103492.59;6273850;22;20303;-74
2024/01/27 03:34:47;;;;;;;;;;;;;;;1.46;100.00;103498.31;6272844;22;19899;-74
2024/01/27 03:37:12;;;;;;;;;;;;;;;1.44;100.00;103498.16;6273868;22;19907;-74
2024/01/27 03:39:40;;;;;;;;;;;;;;;1.41;100.00;103505.56;6247210;22;19914;-74
2024/01/27 03:42:05;;;;;;;;;;;;;;;1.39;100.00;103497.69;6247751;22;19903;-74
2024/01/27 03:44:31;;;;;;;;;;;;;;;1.38;100.00;103494.97;6274142;22;19903;-74
2024/01/27 03:46:56;;;;;;;;;;;;;;;1.37;100.00;103503.41;6274654;22;19986;-74
2024/01/27 03:49:21;;;;;;;;;;;;;;;1.36;100.00;103491.31;6273634;22;19903;-74
2024/01/27 03:51:46;;;;;;;;;;;;;;;1.36;100.00;103491.31;6273960;22;19915;-74
2024/01/27 03:54:12;;;;;;;;;;;;;;;1.37;100.00;103493.13;6246653;22;20334;-74
2024/01/27 03:56:37;;;;;;;;;;;;;;;1.37;100.00;103494.03;6273939;22;20311;-74
2024/01/27 03:59:03;;;;;;;;;;;;;;;1.36;100.00;103497.38;6247404;22;19903;-74
2024/01/27 04:01:28;;;;;;;;;;;;;;;1.38;100.00;103502.66;6246815;22;19972;-74
2024/01/27 04:03:54;;;;;;;;;;;;;;;1.36;100.00;103501.59;6273290;22;20314;-74
2024/01/27 04:06:19;;;;;;;;;;;;;;;1.34;100.00;103503.09;6273917;22;20380;-74
2024/01/27 04:08:44;;;;;;;;;;;;;;;1.33;100.00;103501.28;6273499;22;20426;-74
2024/01/27 04:11:18;;;;;;;;;;;;;;;1.32;100.00;103514.88;6273892;22;20322;-74
2024/01/27 04:13:43;;;;;;;;;;;;;;;1.30;100.00;103509.56;6273661;22;20286;-74
2024/01/27 04:16:08;;;;;;;;;;;;;;;1.28;100.00;103512.75;6274253;22;19918;-74
2024/01/27 04:18:34;;;;;;;;;;;;;;;1.29;100.00;103511.97;6273803;22;20322;-74
2024/01/27 04:20:59;;;;;;;;;;;;;;;1.28;100.00;103512.75;6245986;22;19907;-74
2024/01/27 04:23:24;;;;;;;;;;;;;;;1.25;100.00;103504.72;6246831;22;19942;-74
2024/01/27 04:25:49;;;;;;;;;;;;;;;1.24;100.00;103505.47;6271436;22;19903;-74
2024/01/27 04:28:14;;;;;;;;;;;;;;;1.23;100.00;103509.66;6272543;22;19907;-74
2024/01/27 04:30:40;;;;;;;;;;;;;;;1.21;100.00;103499.22;6274074;22;19907;-74
2024/01/27 04:33:07;;;;;;;;;;;;;;;1.19;100.00;103495.59;6246071;22;20372;-74
2024/01/27 04:35:32;;;;;;;;;;;;;;;1.19;100.00;103497.28;6272730;22;19907;-74
2024/01/27 04:37:58;;;;;;;;;;;;;;;1.20;100.00;103499.06;6273528;22;19956;-74
2024/01/27 04:40:23;;;;;;;;;;;;;;;1.18;100.00;103511.75;6273391;22;19903;-74
2024/01/27 04:42:48;;;;;;;;;;;;;;;1.18;100.00;103505.72;6273230;22;19961;-74
2024/01/27 04:45:14;;;;;;;;;;;;;;;1.16;100.00;103508.13;6273293;22;19938;-74
2024/01/27 04:47:39;;;;;;;;;;;;;;;1.15;100.00;103515.69;6246259;22;20318;-74
2024/01/27 04:50:05;;;;;;;;;;;;;;;1.12;100.00;103516.25;6247160;22;19921;-74
2024/01/27 04:52:30;;;;;;;;;;;;;;;1.11;100.00;103514.44;6244991;22;19907;-74
2024/01/27 04:54:55;;;;;;;;;;;;;;;1.07;100.00;103504.56;6273395;22;19957;-74
2024/01/27 04:57:21;;;;;;;;;;;;;;;1.04;100.00;103509.41;6273938;22;19981;-74
2024/01/27 04:59:46;;;;;;;;;;;;;;;1.05;100.00;103513.78;6273761;22;19945;-74
2024/01/27 05:02:11;;;;;;;;;;;;;;;1.03;100.00;103505.03;6245923;22;19907;-74
2024/01/27 05:04:37;;;;;;;;;;;;;;;1.00;100.00;103508.19;6245665;22;19914;-74
2024/01/27 05:07:02;;;;;;;;;;;;;;;1.01;100.00;103506.50;6274405;22;19989;-74
2024/01/27 05:09:27;;;;;;;;;;;;;;;1.02;100.00;103509.25;6272995;22;19913;-74
2024/01/27 05:11:53;;;;;;;;;;;;;;;1.01;100.00;103507.44;6272415;22;20395;-74
2024/01/27 05:14:18;;;;;;;;;;;;;;;1.02;100.00;103509.25;6271174;22;20276;-74
2024/01/27 05:16:43;;;;;;;;;;;;;;;1.02;100.00;103521.19;6273334;22;20020;-74
2024/01/27 05:19:09;;;;;;;;;;;;;;;1.00;100.00;103521.03;6273515;22;19911;-74
2024/01/27 05:21:35;;;;;;;;;;;;;;;0.99;100.00;103510.59;6273208;22;19986;-74
2024/01/27 05:24:00;;;;;;;;;;;;;;;0.97;100.00;103517.19;6272773;22;19941;-73
2024/01/27 05:26:25;;;;;;;;;;;;;;;0.97;100.00;103523.25;6273396;22;19938;-73
2024/01/27 05:28:50;;;;;;;;;;;;;;;0.96;100.00;103515.41;6273367;22;19903;-73
2024/01/27 05:31:16;;;;;;;;;;;;;;;0.95;100.00;103513.56;6273268;22;19914;-74
2024/01/27 05:33:42;;;;;;;;;;;;;;;0.93;100.00;103512.47;6246024;22;19957;-74
2024/01/27 05:36:08;;;;;;;;;;;;;;;0.92;100.00;103514.16;6245429;22;19903;-74
2024/01/27 05:38:33;;;;;;;;;;;;;;;0.94;100.00;103510.09;6246185;22;19903;-74
2024/01/27 05:41:02;;;;;;;;;;;;;;;0.94;100.00;103493.78;6273699;22;19899;-74
2024/01/27 05:43:27;;;;;;;;;;;;;;;0.92;100.00;103497.84;6246212;22;19969;-74
2024/01/27 05:45:53;;;;;;;;;;;;;;;0.92;100.00;103491.06;6245336;22;19906;-74
2024/01/27 05:48:18;;;;;;;;;;;;;;;0.90;100.00;103494.19;6245939;22;19903;-74
2024/01/27 05:50:43;;;;;;;;;;;;;;;0.89;100.00;103488.16;6273320;22;19914;-74
2024/01/27 05:53:09;;;;;;;;;;;;;;;0.89;100.00;103487.28;6273883;22;20318;-74
2024/01/27 05:55:34;;;;;;;;;;;;;;;0.85;100.00;103489.50;6272089;22;19914;-74
2024/01/27 05:57:59;;;;;;;;;;;;;;;0.83;100.00;103488.41;6272619;22;19977;-74
2024/01/27 06:00:24;;;;;;;;;;;;;;;0.81;100.00;103496.69;6272574;22;19900;-74
2024/01/27 06:02:50;;;;;;;;;;;;;;;0.80;100.00;103494.91;6272201;22;20354;-74
2024/01/27 06:05:15;;;;;;;;;;;;;;;0.80;100.00;103493.22;6272750;22;19903;-74
2024/01/27 06:07:40;;;;;;;;;;;;;;;0.79;100.00;103499.09;6270961;22;20465;-74
2024/01/27 06:10:09;;;;;;;;;;;;;;;0.77;100.00;103495.47;6242283;22;20234;-74
2024/01/27 06:12:34;;;;;;;;;;;;;;;0.78;100.00;103487.03;6272986;22;19903;-74
2024/01/27 06:15:00;;;;;;;;;;;;;;;0.78;100.00;103481.91;6272955;22;20338;-74
2024/01/27 06:17:25;;;;;;;;;;;;;;;0.78;100.00;103484.47;6273058;22;20273;-74
2024/01/27 06:19:50;;;;;;;;;;;;;;;0.78;100.00;103487.03;6272081;22;20498;-74
2024/01/27 06:22:15;;;;;;;;;;;;;;;0.77;100.00;103492.91;6244573;22;19903;-74
2024/01/27 06:24:44;;;;;;;;;;;;;;;0.76;100.00;103495.31;6271980;22;19904;-74
2024/01/27 06:27:09;;;;;;;;;;;;;;;0.74;100.00;103495.16;6272258;22;19903;-74
2024/01/27 06:29:34;;;;;;;;;;;;;;;0.74;100.00;103495.16;6245402;22;19921;-74
2024/01/27 06:32:00;;;;;;;;;;;;;;;0.73;100.00;103498.47;6272296;22;20270;-74
2024/01/27 06:34:25;;;;;;;;;;;;;;;0.76;100.00;103503.03;6244888;22;19907;-74
2024/01/27 06:36:50;;;;;;;;;;;;;;;0.75;100.00;103496.97;6271631;22;19907;-74
2024/01/27 06:39:16;;;;;;;;;;;;;;;0.74;100.00;103510.56;6272270;22;20341;-74
2024/01/27 06:41:41;;;;;;;;;;;;;;;0.75;100.00;103501.19;6272676;22;19902;-74
2024/01/27 06:44:07;;;;;;;;;;;;;;;0.73;100.00;103498.47;6272112;22;19918;-74
2024/01/27 06:46:32;;;;;;;;;;;;;;;0.72;100.00;103500.88;6245178;22;19903;-74
2024/01/27 06:48:58;;;;;;;;;;;;;;;0.72;100.00;103512.03;6245773;22;20329;-74
2024/01/27 06:51:23;;;;;;;;;;;;;;;0.70;100.00;103505.84;6268574;22;20005;-74
2024/01/27 06:53:48;;;;;;;;;;;;;;;0.69;100.00;103512.59;6271705;22;19903;-74
2024/01/27 06:56:13;;;;;;;;;;;;;;;0.69;100.00;103512.59;6272883;22;19990;-74
2024/01/27 06:58:39;;;;;;;;;;;;;;;0.66;100.00;103519.09;6271604;22;19947;-74
2024/01/27 07:01:06;;;;;;;;;;;;;;;0.65;100.00;103525.88;6272634;22;19903;-74
2024/01/27 07:03:31;;;;;;;;;;;;;;;0.65;100.00;103538.72;6246415;22;20486;-74
2024/01/27 07:06:00;;;;;;;;;;;;;;;0.64;100.00;103539.44;6273224;22;19939;-74
2024/01/27 07:08:26;;;;;;;;;;;;;;;0.63;100.00;103534.16;6274031;22;19910;-74
2024/01/27 07:10:51;;;;;;;;;;;;;;;0.63;100.00;103540.19;6273953;22;19922;-74
2024/01/27 07:13:16;;;;;;;;;;;;;;;0.62;100.00;103546.09;6247729;22;19903;-74
2024/01/27 07:15:42;;;;;;;;;;;;;;;0.62;100.00;103542.59;6275153;22;19929;-74
2024/01/27 07:18:07;;;;;;;;;;;;;;;0.63;100.00;103546.97;6246718;22;19903;-74
2024/01/27 07:20:32;;;;;;;;;;;;;;;0.64;100.00;103541.13;6274288;22;19910;-74
2024/01/27 07:22:58;;;;;;;;;;;;;;;0.64;100.00;103551.38;6274104;22;19977;-74
2024/01/27 07:25:23;;;;;;;;;;;;;;;0.65;100.00;103548.03;6274222;22;19934;-74
2024/01/27 07:27:48;;;;;;;;;;;;;;;0.66;100.00;103549.88;6273657;22;19960;-74
2024/01/27 07:30:14;;;;;;;;;;;;;;;0.63;100.00;103549.53;6274644;22;19907;-74
2024/01/27 07:32:40;;;;;;;;;;;;;;;0.63;100.00;103549.53;6247133;22;19903;-74
2024/01/27 07:35:06;;;;;;;;;;;;;;;0.62;100.00;103545.16;6273057;22;19953;-74
2024/01/27 07:37:31;;;;;;;;;;;;;;;0.62;100.00;103558.91;6273392;22;19992;-74
2024/01/27 07:39:56;;;;;;;;;;;;;;;0.62;100.00;103551.22;6245488;22;20540;-74
2024/01/27 07:42:21;;;;;;;;;;;;;;;0.65;100.00;103551.53;6273883;22;20405;-74
2024/01/27 07:44:47;;;;;;;;;;;;;;;0.69;100.00;103555.34;6247259;22;19911;-74
2024/01/27 07:47:12;;;;;;;;;;;;;;;0.74;100.00;103556.75;6274495;22;19967;-74
2024/01/27 07:49:37;;;;;;;;;;;;;;;0.78;100.00;103561.47;6273609;22;19907;-74
2024/01/27 07:52:03;;;;;;;;;;;;;;;0.82;100.00;103563.59;6273542;22;19918;-74
2024/01/27 07:54:29;;;;;;;;;;;;;;;0.86;100.00;103567.41;6246542;22;19907;-74
2024/01/27 07:56:54;;;;;;;;;;;;;;;0.89;100.00;103562.59;6274438;22;20371;-74
2024/01/27 07:59:19;;;;;;;;;;;;;;;0.90;100.00;103561.88;6273881;22;19934;-74
2024/01/27 08:01:44;;;;;;;;;;;;;;;0.94;100.00;103563.09;6274551;22;19903;-74
2024/01/27 08:04:10;;;;;;;;;;;;;;;0.97;100.00;103561.78;6274698;22;20376;-74
2024/01/27 08:06:45;;;;;;;;;;;;;;;1.01;100.00;103553.66;6274787;22;20313;-74
2024/01/27 08:09:11;;;;;;;;;;;;;;;1.06;100.00;103559.28;6247215;22;19910;-74
2024/01/27 08:11:37;;;;;;;;;;;;;;;1.04;100.00;103548.84;6272262;22;19907;-74
2024/01/27 08:14:02;;;;;;;;;;;;;;;1.06;100.00;103537.81;6274403;22;19903;-74
2024/01/27 08:16:27;;;;;;;;;;;;;;;1.07;100.00;103548.22;6271814;22;19903;-74
2024/01/27 08:18:53;;;;;;;;;;;;;;;1.11;100.00;103549.47;6273091;22;19907;-74
2024/01/27 08:21:18;;;;;;;;;;;;;;;1.14;100.00;103547.22;6272520;22;19903;-74
2024/01/27 08:23:44;;;;;;;;;;;;;;;1.19;100.00;103539.28;6244858;22;20311;-74
2024/01/27 08:26:09;;;;;;;;;;;;;;;1.27;100.00;103552.00;6244253;22;19978;-74
2024/01/27 08:28:34;;;;;;;;;;;;;;;1.34;100.00;103549.34;6246952;22;19938;-74
2024/01/27 08:31:01;;;;;;;;;;;;;;;1.46;100.00;103545.47;6272746;22;19907;-74
2024/01/27 08:33:26;;;;;;;;;;;;;;;2.19;100.00;103546.06;6273744;22;19926;-74
2024/01/27 08:35:52;;;;;;;;;;;;;;;3.61;100.00;103529.03;6245888;22;19903;-74
2024/01/27 08:38:17;;;;;;;;;;;;;;;5.16;100.00;103532.88;6273465;22;19911;-74
2024/01/27 08:40:42;;;;;;;;;;;;;;;6.42;100.00;103530.81;6273285;22;19943;-74
2024/01/27 08:43:09;;;;;;;;;;;;;;;7.53;100.00;103533.78;6272510;22;19915;-75
2024/01/27 08:45:35;;;;;;;;;;;;;;;8.23;100.00;103544.34;6270630;22;20389;-74
2024/01/27 08:48:00;;;;;;;;;;;;;;;8.15;100.00;103542.06;6241765;22;19914;-74
2024/01/27 08:50:25;;;;;;;;;;;;;;;8.84;100.00;103536.00;6269053;22;19915;-74
2024/01/27 08:52:51;;;;;;;;;;;;;;;9.71;100.00;103540.50;6268875;22;20670;-74
2024/01/27 08:55:19;;;;;;;;;;;;;;;10.19;100.00;103541.22;6273157;22;19903;-75
2024/01/27 08:57:47;;;;;;;;;;;;;;;10.52;100.00;103546.97;6273571;22;19914;-75
2024/01/27 09:00:13;;;;;;;;;;;;;;;10.79;98.50;103554.84;6273430;22;19903;-74
2024/01/27 09:02:38;;;;;;;;;;;;;;;11.18;96.84;103560.88;6273174;22;19925;-75
2024/01/27 09:05:04;;;;;;;;;;;;;;;10.87;93.31;103553.63;6274355;22;19910;-74
2024/01/27 09:07:30;;;;;;;;;;;;;;;10.78;94.49;103553.91;6272506;22;19903;-75
2024/01/27 09:09:55;;;;;;;;;;;;;;;10.96;92.88;103553.31;6274071;22;19918;-75
2024/01/27 09:12:21;;;;;;;;;;;;;;;11.15;91.30;103558.03;6246491;22;19907;-75
2024/01/27 09:14:46;;;;;;;;;;;;;;;11.36;89.98;103550.69;6272414;22;19910;-75
2024/01/27 09:17:12;;;;;;;;;;;;;;;11.57;90.79;103560.69;6273237;22;19907;-75
2024/01/27 09:19:37;;;;;;;;;;;;;;;11.69;87.99;103560.56;6273842;22;20003;-75
2024/01/27 09:22:03;;;;;;;;;;;;;;;12.02;87.10;103566.13;6273498;22;20379;-75
2024/01/27 09:24:28;;;;;;;;;;;;;;;12.23;86.18;103563.94;6273210;22;20021;-76
2024/01/27 09:26:53;;;;;;;;;;;;;;;11.65;85.35;103568.19;6272764;22;19903;-76
2024/01/27 09:29:20;;;;;;;;;;;;;;;11.54;85.83;103573.56;6268728;22;19945;-76
2024/01/27 09:31:45;;;;;;;;;;;;;;;11.62;86.63;103573.25;6266955;22;19907;-76
2024/01/27 09:34:10;;;;;;;;;;;;;;;12.37;86.75;103573.50;6267021;22;20307;-76
2024/01/27 09:36:36;;;;;;;;;;;;;;;13.19;84.76;103580.88;6244445;22;19907;-76
2024/01/27 09:39:02;;;;;;;;;;;;;;;14.16;82.35;103582.69;6271054;22;19903;-76
2024/01/27 09:41:30;;;;;;;;;;;;;;;14.87;81.57;103588.97;6273666;22;19932;-76
2024/01/27 09:43:58;;;;;;;;;;;;;;;14.68;78.95;103595.91;6271356;22;19911;-76
2024/01/27 09:46:23;;;;;;;;;;;;;;;13.33;76.85;103602.59;6244712;22;19904;-76
2024/01/27 09:48:49;;;;;;;;;;;;;;;11.81;77.36;103598.81;6270978;22;19983;-76
2024/01/27 09:51:14;;;;;;;;;;;;;;;10.52;79.83;103598.22;6268595;22;19911;-77
2024/01/27 09:53:39;;;;;;;;;;;;;;;9.49;81.21;103599.66;6271786;22;19915;-77
2024/01/27 09:56:06;;;;;;;;;;;;;;;8.76;83.09;103612.53;6272079;22;19935;-77
2024/01/27 09:58:31;;;;;;;;;;;;;;;8.19;84.59;103614.22;6272287;22;19903;-77
2024/01/27 10:00:57;;;;;;;;;;;;;;;7.74;85.46;103611.50;6272689;22;19966;-77
2024/01/27 10:03:26;;;;;;;;;;;;;;;7.30;87.41;103617.53;6272534;22;19939;-77
2024/01/27 10:05:52;;;;;;;;;;;;;;;6.93;87.74;103628.31;6272683;22;20211;-78
2024/01/27 10:08:18;;;;;;;;;;;;;;;6.64;90.92;103625.88;6269900;22;19929;-78
2024/01/27 10:10:43;;;;;;;;;;;;;;;6.37;91.15;103619.25;6268508;22;20334;-78
2024/01/27 10:13:10;;;;;;;;;;;;;;;6.11;91.41;103619.59;6270338;22;20261;-78
2024/01/27 10:15:35;;;;;;;;;;;;;;;5.90;92.74;103619.53;6243626;22;19907;-78
2024/01/27 10:18:07;;;;;;;;;;;;;;;5.70;92.91;103629.00;6273380;22;19953;-78
2024/01/27 10:20:32;;;;;;;;;;;;;;;5.54;94.13;103624.16;6272399;22;19907;-78
2024/01/27 10:22:57;;;;;;;;;;;;;;;5.45;95.09;103625.03;6272810;22;20340;-78
2024/01/27 10:25:23;;;;;;;;;;;;;;;5.39;95.25;103628.88;6272524;22;20318;-78
2024/01/27 10:27:48;;;;;;;;;;;;;;;5.30;96.45;103620.31;6273696;22;19935;-78
2024/01/27 10:30:17;;;;;;;;;;;;;;;5.19;96.74;103611.56;6272489;22;19918;-78
2024/01/27 10:32:42;;;;;;;;;;;;;;;5.14;97.90;103606.75;6272731;22;19903;-78
2024/01/27 10:35:08;;;;;;;;;;;;;;;5.10;97.91;103617.56;6245732;22;19907;-78
2024/01/27 10:37:33;;;;;;;;;;;;;;;5.04;98.86;103620.53;6245815;22;19907;-78
2024/01/27 10:40:08;;;;;;;;;;;;;;;5.01;99.34;103631.50;6246182;22;19907;-78
2024/01/27 10:42:34;;;;;;;;;;;;;;;5.00;100.00;103629.66;6271775;22;20270;-78
2024/01/27 10:45:02;;;;;;;;;;;;;;;5.00;100.00;103631.34;6274074;22;20001;-78
2024/01/27 10:47:29;;;;;;;;;;;;;;;5.00;100.00;103626.19;6247325;22;19908;-77
2024/01/27 10:49:58;;;;;;;;;;;;;;;5.02;100.00;103619.47;6246445;22;20314;-77
2024/01/27 10:52:28;;;;;;;;;;;;;;;5.05;100.00;103622.34;6273200;22;19945;-77
2024/01/27 10:54:54;;;;;;;;;;;;;;;5.08;100.00;103621.72;6248126;22;19954;-78
2024/01/27 10:57:20;;;;;;;;;;;;;;;5.10;100.00;103618.50;6274284;22;19926;-78
2024/01/27 10:59:47;;;;;;;;;;;;;;;5.13;100.00;103611.03;6274939;22;19907;-78
2024/01/27 11:02:13;;;;;;;;;;;;;;;5.17;100.00;103609.59;6274827;22;19910;-78
2024/01/27 11:04:39;;;;;;;;;;;;;;;5.19;100.00;103605.50;6247092;22;19903;-78
2024/01/27 11:07:05;;;;;;;;;;;;;;;5.23;100.00;103603.31;6275302;22;19978;-78
2024/01/27 11:09:31;;;;;;;;;;;;;;;5.27;100.00;103599.34;6274384;22;19903;-78
2024/01/27 11:11:56;;;;;;;;;;;;;;;5.34;100.00;103596.50;6270825;22;19907;-78
2024/01/27 11:14:21;;;;;;;;;;;;;;;5.37;100.00;103596.81;6271792;22;19907;-78
2024/01/27 11:16:47;;;;;;;;;;;;;;;5.43;100.00;103595.53;6271425;22;19915;-78
2024/01/27 11:19:12;;;;;;;;;;;;;;;5.47;100.00;103587.28;6246901;22;19910;-78
2024/01/27 11:21:38;;;;;;;;;;;;;;;5.50;100.00;103590.13;6275169;22;19943;-78
2024/01/27 11:24:13;;;;;;;;;;;;;;;5.53;100.00;103593.91;6247087;22;19907;-78
2024/01/27 11:26:38;;;;;;;;;;;;;;;5.55;100.00;103597.53;6247693;22;19913;-78
2024/01/27 11:29:18;;;;;;;;;;;;;;;5.60;100.00;103590.19;6247563;22;19942;-78
2024/01/27 11:31:44;;;;;;;;;;;;;;;5.63;100.00;103585.28;6275223;22;19907;-78
2024/01/27 11:34:12;;;;;;;;;;;;;;;5.63;100.00;103585.28;6274569;22;19907;-78
2024/01/27 11:36:37;;;;;;;;;;;;;;;5.65;100.00;103590.56;6275108;22;20237;-78
2024/01/27 11:39:03;;;;;;;;;;;;;;;5.66;100.00;103585.56;6274814;22;19938;-78
2024/01/27 11:41:29;;;;;;;;;;;;;;;5.69;100.00;103583.25;6274965;22;19903;-78
2024/01/27 11:44:01;;;;;;;;;;;;;;;5.73;100.00;103577.53;6247920;22;19911;-78
2024/01/27 11:46:27;;;;;;;;;;;;;;;5.75;100.00;103583.78;6274683;22;19903;-78
2024/01/27 11:48:52;;;;;;;;;;;;;;;5.80;100.00;103588.44;6274404;22;19981;-78
2024/01/27 11:51:19;;;;;;;;;;;;;;;5.83;100.00;103573.19;6274317;22;20013;-78
2024/01/27 11:53:44;;;;;;;;;;;;;;;5.86;100.00;103570.84;6274191;22;20338;-79
2024/01/27 11:56:10;;;;;;;;;;;;;;;5.90;100.00;103567.78;6274138;22;19903;-78
2024/01/27 11:58:35;;;;;;;;;;;;;;;5.95;100.00;103568.16;6274600;22;19907;-78
2024/01/27 12:01:01;;;;;;;;;;;;;;;5.97;100.00;103564.00;6247526;22;19942;-78
2024/01/27 12:03:26;;;;;;;;;;;;;;;6.00;100.00;103565.25;6274566;22;19903;-78
2024/01/27 12:05:51;;;;;;;;;;;;;;;6.02;100.00;103563.66;6274919;22;19964;-78
2024/01/27 12:08:17;;;;;;;;;;;;;;;6.04;100.00;103569.91;6274594;22;19990;-78
2024/01/27 12:10:42;;;;;;;;;;;;;;;6.07;100.00;103564.09;6274717;22;19961;-78
2024/01/27 12:13:07;;;;;;;;;;;;;;;6.10;100.00;103559.19;6273965;22;19990;-78
2024/01/27 12:15:32;;;;;;;;;;;;;;;6.13;100.00;103558.53;6274572;22;19946;-78
2024/01/27 12:17:58;;;;;;;;;;;;;;;6.17;100.00;103565.75;6273681;22;19907;-78
2024/01/27 12:20:23;;;;;;;;;;;;;;;6.20;100.00;103571.19;6274531;22;19906;-78
2024/01/27 12:22:52;;;;;;;;;;;;;;;6.21;100.00;103565.25;6247612;22;20004;-78
2024/01/27 12:25:21;;;;;;;;;;;;;;;6.25;100.00;103567.34;6273925;22;19961;-79
2024/01/27 12:27:46;;;;;;;;;;;;;;;6.29;100.00;103574.59;6274579;22;19910;-78
2024/01/27 12:30:11;;;;;;;;;;;;;;;6.32;100.00;103567.09;6242911;22;19911;-78